sensor_id;sensor_type;location;lat;lon;timestamp;P1;durP1;ratioP1;P2;durP2;ratioP2
61096;SDS011;46977;50.936;6.908;2023-04-01T00:01:28;0.15;;;0.00;;
61096;SDS011;46977;50.936;6.908;2023-04-01T00:04:30;0.38;;;0.10;;
61096;SDS011;46977;50.936;6.908;2023-04-01T00:07:33;0.80;;;0.10;;
61096;SDS011;46977;50.936;6.908;2023-04-01T00:10:36;0.63;;;0.03;;
61096;SDS011;46977;50.936;6.908;2023-04-01T00:13:39;0.20;;;0.05;;
61096;SDS011;46977;50.936;6.908;2023-04-01T00:16:41;0.50;;;0.10;;
61096;SDS011;46977;50.936;6.908;2023-04-01T00:19:44;0.20;;;0.00;;
61096;SDS011;46977;50.936;6.908;2023-04-01T00:22:46;0.10;;;0.00;;
61096;SDS011;46977;50.936;6.908;2023-04-01T00:25:50;0.40;;;0.10;;
61096;SDS011;46977;50.936;6.908;2023-04-01T00:28:52;0.08;;;0.00;;
61096;SDS011;46977;50.936;6.908;2023-04-01T00:31:55;0.90;;;0.25;;
61096;SDS011;46977;50.936;6.908;2023-04-01T00:35:01;0.40;;;0.00;;
61096;SDS011;46977;50.936;6.908;2023-04-01T00:38:03;0.17;;;0.00;;
61096;SDS011;46977;50.936;6.908;2023-04-01T00:41:08;1.20;;;0.10;;
61096;SDS011;46977;50.936;6.908;2023-04-01T00:44:16;0.10;;;0.00;;
61096;SDS011;46977;50.936;6.908;2023-04-01T00:47:20;0.52;;;0.20;;
61096;SDS011;46977;50.936;6.908;2023-04-01T00:50:22;0.10;;;0.10;;
61096;SDS011;46977;50.936;6.908;2023-04-01T00:53:26;1.13;;;0.10;;
61096;SDS011;46977;50.936;6.908;2023-04-01T00:56:32;0.13;;;0.00;;
61096;SDS011;46977;50.936;6.908;2023-04-01T00:59:40;0.20;;;0.13;;
61096;SDS011;46977;50.936;6.908;2023-04-01T01:02:45;0.08;;;0.00;;
61096;SDS011;46977;50.936;6.908;2023-04-01T01:05:54;0.75;;;0.10;;
61096;SDS011;46977;50.936;6.908;2023-04-01T01:09:18;0.13;;;0.00;;
61096;SDS011;46977;50.936;6.908;2023-04-01T01:12:31;0.10;;;0.10;;
61096;SDS011;46977;50.936;6.908;2023-04-01T01:15:37;0.43;;;0.43;;
61096;SDS011;46977;50.936;6.908;2023-04-01T01:18:44;0.10;;;0.00;;
61096;SDS011;46977;50.936;6.908;2023-04-01T01:21:55;0.93;;;0.10;;
61096;SDS011;46977;50.936;6.908;2023-04-01T01:28:38;0.17;;;0.00;;
61096;SDS011;46977;50.936;6.908;2023-04-01T01:31:49;0.10;;;0.10;;
61096;SDS011;46977;50.936;6.908;2023-04-01T01:34:54;0.20;;;0.00;;
61096;SDS011;46977;50.936;6.908;2023-04-01T01:38:09;0.45;;;0.00;;
61096;SDS011;46977;50.936;6.908;2023-04-01T01:41:16;0.30;;;0.00;;
61096;SDS011;46977;50.936;6.908;2023-04-01T01:44:20;0.28;;;0.00;;
61096;SDS011;46977;50.936;6.908;2023-04-01T01:47:23;0.10;;;0.00;;
61096;SDS011;46977;50.936;6.908;2023-04-01T01:50:27;0.20;;;0.00;;
61096;SDS011;46977;50.936;6.908;2023-04-01T01:53:30;0.00;;;0.00;;
61096;SDS011;46977;50.936;6.908;2023-04-01T01:56:32;0.00;;;0.00;;
61096;SDS011;46977;50.936;6.908;2023-04-01T01:59:38;0.03;;;0.00;;
61096;SDS011;46977;50.936;6.908;2023-04-01T02:02:42;0.55;;;0.00;;
61096;SDS011;46977;50.936;6.908;2023-04-01T02:05:49;0.00;;;0.00;;
61096;SDS011;46977;50.936;6.908;2023-04-01T02:08:53;0.30;;;0.00;;
61096;SDS011;46977;50.936;6.908;2023-04-01T02:11:58;0.10;;;0.00;;
61096;SDS011;46977;50.936;6.908;2023-04-01T02:15:05;0.10;;;0.00;;
61096;SDS011;46977;50.936;6.908;2023-04-01T02:18:11;0.00;;;0.00;;
61096;SDS011;46977;50.936;6.908;2023-04-01T02:21:15;0.10;;;0.00;;
61096;SDS011;46977;50.936;6.908;2023-04-01T02:24:20;0.00;;;0.00;;
61096;SDS011;46977;50.936;6.908;2023-04-01T02:27:24;0.40;;;0.00;;
61096;SDS011;46977;50.936;6.908;2023-04-01T02:30:27;0.75;;;0.03;;
61096;SDS011;46977;50.936;6.908;2023-04-01T02:33:31;0.35;;;0.00;;
61096;SDS011;46977;50.936;6.908;2023-04-01T02:36:35;0.00;;;0.00;;
61096;SDS011;46977;50.936;6.908;2023-04-01T02:39:38;0.10;;;0.00;;
61096;SDS011;46977;50.936;6.908;2023-04-01T02:42:40;0.00;;;0.00;;
61096;SDS011;46977;50.936;6.908;2023-04-01T02:45:43;0.10;;;0.00;;
61096;SDS011;46977;50.936;6.908;2023-04-01T02:48:45;0.20;;;0.00;;
61096;SDS011;46977;50.936;6.908;2023-04-01T02:51:49;0.20;;;0.00;;
61096;SDS011;46977;50.936;6.908;2023-04-01T02:54:51;0.10;;;0.00;;
61096;SDS011;46977;50.936;6.908;2023-04-01T02:57:54;0.38;;;0.00;;
61096;SDS011;46977;50.936;6.908;2023-04-01T03:00:56;1.00;;;0.00;;
61096;SDS011;46977;50.936;6.908;2023-04-01T03:03:58;0.45;;;0.00;;
61096;SDS011;46977;50.936;6.908;2023-04-01T03:07:02;0.13;;;0.10;;
61096;SDS011;46977;50.936;6.908;2023-04-01T03:10:06;2.20;;;0.00;;
61096;SDS011;46977;50.936;6.908;2023-04-01T03:13:09;1.02;;;0.00;;
61096;SDS011;46977;50.936;6.908;2023-04-01T03:16:11;0.63;;;0.00;;
61096;SDS011;46977;50.936;6.908;2023-04-01T03:19:15;0.00;;;0.00;;
61096;SDS011;46977;50.936;6.908;2023-04-01T03:22:19;0.00;;;0.00;;
61096;SDS011;46977;50.936;6.908;2023-04-01T03:25:23;0.00;;;0.00;;
61096;SDS011;46977;50.936;6.908;2023-04-01T03:28:25;0.00;;;0.00;;
61096;SDS011;46977;50.936;6.908;2023-04-01T03:31:27;0.00;;;0.00;;
61096;SDS011;46977;50.936;6.908;2023-04-01T03:34:32;0.00;;;0.00;;
61096;SDS011;46977;50.936;6.908;2023-04-01T03:37:36;0.10;;;0.00;;
61096;SDS011;46977;50.936;6.908;2023-04-01T03:40:41;0.00;;;0.00;;
61096;SDS011;46977;50.936;6.908;2023-04-01T03:43:44;0.10;;;0.00;;
61096;SDS011;46977;50.936;6.908;2023-04-01T03:46:48;0.00;;;0.00;;
61096;SDS011;46977;50.936;6.908;2023-04-01T03:49:51;0.28;;;0.00;;
61096;SDS011;46977;50.936;6.908;2023-04-01T03:52:55;0.00;;;0.00;;
61096;SDS011;46977;50.936;6.908;2023-04-01T03:55:57;0.20;;;0.00;;
61096;SDS011;46977;50.936;6.908;2023-04-01T03:59:01;0.03;;;0.00;;
61096;SDS011;46977;50.936;6.908;2023-04-01T04:02:04;0.00;;;0.00;;
61096;SDS011;46977;50.936;6.908;2023-04-01T04:05:07;0.00;;;0.00;;
61096;SDS011;46977;50.936;6.908;2023-04-01T04:08:13;0.10;;;0.10;;
61096;SDS011;46977;50.936;6.908;2023-04-01T04:11:16;0.20;;;0.00;;
61096;SDS011;46977;50.936;6.908;2023-04-01T04:14:18;0.00;;;0.00;;
61096;SDS011;46977;50.936;6.908;2023-04-01T04:17:21;0.00;;;0.00;;
61096;SDS011;46977;50.936;6.908;2023-04-01T04:20:24;0.00;;;0.00;;
61096;SDS011;46977;50.936;6.908;2023-04-01T04:23:27;0.10;;;0.10;;
61096;SDS011;46977;50.936;6.908;2023-04-01T04:26:31;0.00;;;0.00;;
61096;SDS011;46977;50.936;6.908;2023-04-01T04:29:35;0.03;;;0.00;;
61096;SDS011;46977;50.936;6.908;2023-04-01T04:32:37;0.10;;;0.00;;
61096;SDS011;46977;50.936;6.908;2023-04-01T04:35:39;0.00;;;0.00;;
61096;SDS011;46977;50.936;6.908;2023-04-01T04:38:43;0.00;;;0.00;;
61096;SDS011;46977;50.936;6.908;2023-04-01T04:41:46;0.00;;;0.00;;
61096;SDS011;46977;50.936;6.908;2023-04-01T04:44:48;0.00;;;0.00;;
61096;SDS011;46977;50.936;6.908;2023-04-01T04:47:50;0.20;;;0.00;;
61096;SDS011;46977;50.936;6.908;2023-04-01T04:50:53;0.08;;;0.00;;
61096;SDS011;46977;50.936;6.908;2023-04-01T04:53:59;0.13;;;0.00;;
61096;SDS011;46977;50.936;6.908;2023-04-01T04:57:16;0.10;;;0.00;;
61096;SDS011;46977;50.936;6.908;2023-04-01T05:00:26;0.00;;;0.00;;
61096;SDS011;46977;50.936;6.908;2023-04-01T05:03:32;0.00;;;0.00;;
61096;SDS011;46977;50.936;6.908;2023-04-01T05:06:35;0.35;;;0.00;;
61096;SDS011;46977;50.936;6.908;2023-04-01T05:09:38;0.43;;;0.05;;
61096;SDS011;46977;50.936;6.908;2023-04-01T05:12:41;0.10;;;0.10;;
61096;SDS011;46977;50.936;6.908;2023-04-01T05:15:45;0.13;;;0.00;;
61096;SDS011;46977;50.936;6.908;2023-04-01T05:18:48;0.00;;;0.00;;
61096;SDS011;46977;50.936;6.908;2023-04-01T05:21:59;0.08;;;0.00;;
61096;SDS011;46977;50.936;6.908;2023-04-01T05:25:08;0.10;;;0.00;;
61096;SDS011;46977;50.936;6.908;2023-04-01T05:28:16;0.30;;;0.00;;
61096;SDS011;46977;50.936;6.908;2023-04-01T05:31:21;0.35;;;0.00;;
61096;SDS011;46977;50.936;6.908;2023-04-01T05:34:26;0.52;;;0.00;;
61096;SDS011;46977;50.936;6.908;2023-04-01T05:37:28;0.03;;;0.00;;
61096;SDS011;46977;50.936;6.908;2023-04-01T05:40:32;0.22;;;0.13;;
61096;SDS011;46977;50.936;6.908;2023-04-01T05:43:35;0.55;;;0.10;;
61096;SDS011;46977;50.936;6.908;2023-04-01T05:46:55;0.75;;;0.40;;
61096;SDS011;46977;50.936;6.908;2023-04-01T05:50:00;0.10;;;0.00;;
61096;SDS011;46977;50.936;6.908;2023-04-01T05:53:03;0.00;;;0.00;;
61096;SDS011;46977;50.936;6.908;2023-04-01T05:56:09;0.75;;;0.10;;
61096;SDS011;46977;50.936;6.908;2023-04-01T05:59:17;0.52;;;0.10;;
61096;SDS011;46977;50.936;6.908;2023-04-01T06:02:19;0.95;;;0.10;;
61096;SDS011;46977;50.936;6.908;2023-04-01T06:05:22;0.13;;;0.10;;
61096;SDS011;46977;50.936;6.908;2023-04-01T06:08:27;0.10;;;0.10;;
61096;SDS011;46977;50.936;6.908;2023-04-01T06:11:32;2.13;;;0.10;;
61096;SDS011;46977;50.936;6.908;2023-04-01T06:14:40;0.63;;;0.20;;
61096;SDS011;46977;50.936;6.908;2023-04-01T06:17:55;0.38;;;0.10;;
61096;SDS011;46977;50.936;6.908;2023-04-01T06:21:08;0.10;;;0.10;;
61096;SDS011;46977;50.936;6.908;2023-04-01T06:24:36;0.90;;;0.10;;
61096;SDS011;46977;50.936;6.908;2023-04-01T06:27:56;0.10;;;0.10;;
61096;SDS011;46977;50.936;6.908;2023-04-01T06:31:05;0.10;;;0.10;;
61096;SDS011;46977;50.936;6.908;2023-04-01T06:34:21;0.65;;;0.65;;
61096;SDS011;46977;50.936;6.908;2023-04-01T06:37:43;0.10;;;0.10;;
61096;SDS011;46977;50.936;6.908;2023-04-01T06:44:20;0.73;;;0.17;;
61096;SDS011;46977;50.936;6.908;2023-04-01T06:47:48;1.30;;;0.20;;
61096;SDS011;46977;50.936;6.908;2023-04-01T06:51:24;0.40;;;0.40;;
61096;SDS011;46977;50.936;6.908;2023-04-01T06:54:49;0.35;;;0.20;;
61096;SDS011;46977;50.936;6.908;2023-04-01T06:58:13;0.20;;;0.20;;
61096;SDS011;46977;50.936;6.908;2023-04-01T07:01:24;0.45;;;0.30;;
61096;SDS011;46977;50.936;6.908;2023-04-01T07:04:30;0.30;;;0.30;;
61096;SDS011;46977;50.936;6.908;2023-04-01T07:07:36;1.42;;;0.30;;
61096;SDS011;46977;50.936;6.908;2023-04-01T07:10:45;0.85;;;0.43;;
61096;SDS011;46977;50.936;6.908;2023-04-01T07:14:10;0.30;;;0.30;;
61096;SDS011;46977;50.936;6.908;2023-04-01T07:17:17;0.65;;;0.30;;
61096;SDS011;46977;50.936;6.908;2023-04-01T07:20:24;0.40;;;0.30;;
61096;SDS011;46977;50.936;6.908;2023-04-01T07:23:29;1.00;;;0.40;;
61096;SDS011;46977;50.936;6.908;2023-04-01T07:26:54;0.88;;;0.38;;
61096;SDS011;46977;50.936;6.908;2023-04-01T07:30:00;2.63;;;0.45;;
61096;SDS011;46977;50.936;6.908;2023-04-01T07:33:05;0.38;;;0.32;;
61096;SDS011;46977;50.936;6.908;2023-04-01T07:36:13;1.00;;;0.30;;
61096;SDS011;46977;50.936;6.908;2023-04-01T07:39:25;0.60;;;0.30;;
61096;SDS011;46977;50.936;6.908;2023-04-01T07:42:41;0.40;;;0.30;;
61096;SDS011;46977;50.936;6.908;2023-04-01T07:45:53;1.38;;;0.30;;
61096;SDS011;46977;50.936;6.908;2023-04-01T07:49:03;0.63;;;0.40;;
61096;SDS011;46977;50.936;6.908;2023-04-01T07:52:11;0.82;;;0.22;;
61096;SDS011;46977;50.936;6.908;2023-04-01T07:55:22;0.88;;;0.60;;
61096;SDS011;46977;50.936;6.908;2023-04-01T07:58:28;0.45;;;0.35;;
61096;SDS011;46977;50.936;6.908;2023-04-01T08:01:39;0.52;;;0.52;;
61096;SDS011;46977;50.936;6.908;2023-04-01T08:04:50;0.28;;;0.20;;
61096;SDS011;46977;50.936;6.908;2023-04-01T08:07:58;0.40;;;0.30;;
61096;SDS011;46977;50.936;6.908;2023-04-01T08:11:31;0.20;;;0.20;;
61096;SDS011;46977;50.936;6.908;2023-04-01T08:15:06;0.85;;;0.30;;
61096;SDS011;46977;50.936;6.908;2023-04-01T08:18:29;0.25;;;0.25;;
61096;SDS011;46977;50.936;6.908;2023-04-01T08:21:41;1.00;;;0.30;;
61096;SDS011;46977;50.936;6.908;2023-04-01T08:24:45;0.17;;;0.17;;
61096;SDS011;46977;50.936;6.908;2023-04-01T08:27:59;0.30;;;0.20;;
61096;SDS011;46977;50.936;6.908;2023-04-01T08:31:03;0.32;;;0.20;;
61096;SDS011;46977;50.936;6.908;2023-04-01T08:34:10;0.20;;;0.20;;
61096;SDS011;46977;50.936;6.908;2023-04-01T08:37:19;0.20;;;0.10;;
61096;SDS011;46977;50.936;6.908;2023-04-01T08:44:16;0.20;;;0.20;;
61096;SDS011;46977;50.936;6.908;2023-04-01T08:47:29;0.73;;;0.15;;
61096;SDS011;46977;50.936;6.908;2023-04-01T08:50:56;0.17;;;0.10;;
61096;SDS011;46977;50.936;6.908;2023-04-01T08:54:20;0.60;;;0.10;;
61096;SDS011;46977;50.936;6.908;2023-04-01T08:57:43;0.35;;;0.10;;
61096;SDS011;46977;50.936;6.908;2023-04-01T09:01:22;0.20;;;0.10;;
61096;SDS011;46977;50.936;6.908;2023-04-01T09:08:13;0.15;;;0.10;;
61096;SDS011;46977;50.936;6.908;2023-04-01T09:11:28;0.00;;;0.00;;
61096;SDS011;46977;50.936;6.908;2023-04-01T09:14:58;0.20;;;0.10;;
61096;SDS011;46977;50.936;6.908;2023-04-01T09:18:27;0.10;;;0.10;;
61096;SDS011;46977;50.936;6.908;2023-04-01T09:21:57;0.43;;;0.43;;
61096;SDS011;46977;50.936;6.908;2023-04-01T09:28:27;0.20;;;0.10;;
61096;SDS011;46977;50.936;6.908;2023-04-01T09:35:22;0.00;;;0.00;;
61096;SDS011;46977;50.936;6.908;2023-04-01T09:38:30;0.10;;;0.10;;
61096;SDS011;46977;50.936;6.908;2023-04-01T09:41:40;0.10;;;0.00;;
61096;SDS011;46977;50.936;6.908;2023-04-01T09:45:06;0.10;;;0.10;;
61096;SDS011;46977;50.936;6.908;2023-04-01T09:48:16;0.20;;;0.10;;
61096;SDS011;46977;50.936;6.908;2023-04-01T09:51:26;0.10;;;0.10;;
61096;SDS011;46977;50.936;6.908;2023-04-01T09:54:41;0.10;;;0.10;;
61096;SDS011;46977;50.936;6.908;2023-04-01T09:58:08;0.10;;;0.10;;
61096;SDS011;46977;50.936;6.908;2023-04-01T10:01:58;0.75;;;0.20;;
61096;SDS011;46977;50.936;6.908;2023-04-01T10:05:22;0.20;;;0.20;;
61096;SDS011;46977;50.936;6.908;2023-04-01T10:08:52;0.25;;;0.20;;
61096;SDS011;46977;50.936;6.908;2023-04-01T10:15:52;0.30;;;0.20;;
61096;SDS011;46977;50.936;6.908;2023-04-01T10:19:34;0.80;;;0.20;;
61096;SDS011;46977;50.936;6.908;2023-04-01T10:23:03;1.05;;;0.45;;
61096;SDS011;46977;50.936;6.908;2023-04-01T10:26:23;0.90;;;0.20;;
61096;SDS011;46977;50.936;6.908;2023-04-01T10:33:52;0.20;;;0.17;;
61096;SDS011;46977;50.936;6.908;2023-04-01T10:37:34;1.38;;;0.20;;
61096;SDS011;46977;50.936;6.908;2023-04-01T10:40:53;0.75;;;0.20;;
61096;SDS011;46977;50.936;6.908;2023-04-01T10:44:35;0.20;;;0.20;;
61096;SDS011;46977;50.936;6.908;2023-04-01T10:48:04;0.85;;;0.30;;
61096;SDS011;46977;50.936;6.908;2023-04-01T10:51:16;0.35;;;0.25;;
61096;SDS011;46977;50.936;6.908;2023-04-01T10:54:42;0.20;;;0.20;;
61096;SDS011;46977;50.936;6.908;2023-04-01T10:58:21;0.30;;;0.30;;
61096;SDS011;46977;50.936;6.908;2023-04-01T11:02:15;0.35;;;0.30;;
61096;SDS011;46977;50.936;6.908;2023-04-01T11:06:19;0.68;;;0.25;;
61096;SDS011;46977;50.936;6.908;2023-04-01T11:10:02;0.20;;;0.20;;
61096;SDS011;46977;50.936;6.908;2023-04-01T11:13:54;0.28;;;0.20;;
61096;SDS011;46977;50.936;6.908;2023-04-01T11:17:29;0.20;;;0.20;;
61096;SDS011;46977;50.936;6.908;2023-04-01T11:20:51;0.25;;;0.20;;
61096;SDS011;46977;50.936;6.908;2023-04-01T11:24:05;0.20;;;0.10;;
61096;SDS011;46977;50.936;6.908;2023-04-01T11:27:36;0.20;;;0.17;;
61096;SDS011;46977;50.936;6.908;2023-04-01T11:30:58;0.20;;;0.10;;
61096;SDS011;46977;50.936;6.908;2023-04-01T11:34:11;0.90;;;0.17;;
61096;SDS011;46977;50.936;6.908;2023-04-01T11:37:25;0.20;;;0.20;;
61096;SDS011;46977;50.936;6.908;2023-04-01T11:40:59;0.20;;;0.20;;
61096;SDS011;46977;50.936;6.908;2023-04-01T11:44:27;0.15;;;0.15;;
61096;SDS011;46977;50.936;6.908;2023-04-01T11:47:56;0.20;;;0.20;;
61096;SDS011;46977;50.936;6.908;2023-04-01T11:51:11;0.10;;;0.10;;
61096;SDS011;46977;50.936;6.908;2023-04-01T11:58:03;0.20;;;0.20;;
61096;SDS011;46977;50.936;6.908;2023-04-01T12:01:19;0.30;;;0.30;;
61096;SDS011;46977;50.936;6.908;2023-04-01T12:04:27;0.20;;;0.20;;
61096;SDS011;46977;50.936;6.908;2023-04-01T12:11:08;0.17;;;0.17;;
61096;SDS011;46977;50.936;6.908;2023-04-01T12:14:18;0.20;;;0.20;;
61096;SDS011;46977;50.936;6.908;2023-04-01T12:17:28;0.20;;;0.20;;
61096;SDS011;46977;50.936;6.908;2023-04-01T12:20:36;0.25;;;0.20;;
61096;SDS011;46977;50.936;6.908;2023-04-01T12:23:52;0.52;;;0.20;;
61096;SDS011;46977;50.936;6.908;2023-04-01T12:27:08;0.20;;;0.20;;
61096;SDS011;46977;50.936;6.908;2023-04-01T12:37:26;0.20;;;0.20;;
61096;SDS011;46977;50.936;6.908;2023-04-01T12:40:40;0.47;;;0.20;;
61096;SDS011;46977;50.936;6.908;2023-04-01T12:43:53;1.17;;;0.25;;
61096;SDS011;46977;50.936;6.908;2023-04-01T12:47:13;0.20;;;0.20;;
61096;SDS011;46977;50.936;6.908;2023-04-01T12:54:08;0.45;;;0.20;;
61096;SDS011;46977;50.936;6.908;2023-04-01T12:57:25;0.20;;;0.20;;
61096;SDS011;46977;50.936;6.908;2023-04-01T13:04:46;0.20;;;0.20;;
61096;SDS011;46977;50.936;6.908;2023-04-01T13:08:11;0.30;;;0.30;;
61096;SDS011;46977;50.936;6.908;2023-04-01T13:11:20;0.52;;;0.20;;
61096;SDS011;46977;50.936;6.908;2023-04-01T13:14:35;0.30;;;0.20;;
61096;SDS011;46977;50.936;6.908;2023-04-01T13:17:53;0.22;;;0.22;;
61096;SDS011;46977;50.936;6.908;2023-04-01T13:21:00;0.40;;;0.20;;
61096;SDS011;46977;50.936;6.908;2023-04-01T13:24:11;0.25;;;0.25;;
61096;SDS011;46977;50.936;6.908;2023-04-01T13:27:23;0.20;;;0.20;;
61096;SDS011;46977;50.936;6.908;2023-04-01T13:30:33;0.30;;;0.30;;
61096;SDS011;46977;50.936;6.908;2023-04-01T13:33:39;0.30;;;0.30;;
61096;SDS011;46977;50.936;6.908;2023-04-01T13:36:45;0.25;;;0.25;;
61096;SDS011;46977;50.936;6.908;2023-04-01T13:40:00;0.40;;;0.40;;
61096;SDS011;46977;50.936;6.908;2023-04-01T13:43:10;0.82;;;0.43;;
61096;SDS011;46977;50.936;6.908;2023-04-01T13:46:26;0.57;;;0.40;;
61096;SDS011;46977;50.936;6.908;2023-04-01T13:56:48;0.50;;;0.50;;
61096;SDS011;46977;50.936;6.908;2023-04-01T14:00:06;0.35;;;0.35;;
61096;SDS011;46977;50.936;6.908;2023-04-01T14:03:17;0.50;;;0.40;;
61096;SDS011;46977;50.936;6.908;2023-04-01T14:06:34;0.38;;;0.38;;
61096;SDS011;46977;50.936;6.908;2023-04-01T14:09:44;0.50;;;0.50;;
61096;SDS011;46977;50.936;6.908;2023-04-01T14:12:58;0.35;;;0.35;;
61096;SDS011;46977;50.936;6.908;2023-04-01T14:16:07;0.80;;;0.50;;
61096;SDS011;46977;50.936;6.908;2023-04-01T14:19:20;0.93;;;0.50;;
61096;SDS011;46977;50.936;6.908;2023-04-01T14:22:32;0.50;;;0.50;;
61096;SDS011;46977;50.936;6.908;2023-04-01T14:25:50;0.60;;;0.60;;
61096;SDS011;46977;50.936;6.908;2023-04-01T14:29:05;0.93;;;0.60;;
61096;SDS011;46977;50.936;6.908;2023-04-01T14:32:18;0.77;;;0.50;;
61096;SDS011;46977;50.936;6.908;2023-04-01T14:35:34;1.27;;;0.50;;
61096;SDS011;46977;50.936;6.908;2023-04-01T14:38:42;0.43;;;0.43;;
61096;SDS011;46977;50.936;6.908;2023-04-01T14:41:51;0.50;;;0.50;;
61096;SDS011;46977;50.936;6.908;2023-04-01T14:45:34;1.05;;;0.47;;
61096;SDS011;46977;50.936;6.908;2023-04-01T14:48:50;0.60;;;0.50;;
61096;SDS011;46977;50.936;6.908;2023-04-01T14:51:54;0.40;;;0.40;;
61096;SDS011;46977;50.936;6.908;2023-04-01T14:54:56;0.40;;;0.40;;
61096;SDS011;46977;50.936;6.908;2023-04-01T14:58:04;1.00;;;0.35;;
61096;SDS011;46977;50.936;6.908;2023-04-01T15:01:18;0.73;;;0.40;;
61096;SDS011;46977;50.936;6.908;2023-04-01T15:04:36;0.60;;;0.60;;
61096;SDS011;46977;50.936;6.908;2023-04-01T15:07:51;0.50;;;0.45;;
61096;SDS011;46977;50.936;6.908;2023-04-01T15:11:21;6.13;;;0.50;;
61096;SDS011;46977;50.936;6.908;2023-04-01T15:18:05;0.50;;;0.50;;
61096;SDS011;46977;50.936;6.908;2023-04-01T15:21:13;0.60;;;0.60;;
61096;SDS011;46977;50.936;6.908;2023-04-01T15:24:21;0.70;;;0.70;;
61096;SDS011;46977;50.936;6.908;2023-04-01T15:27:28;0.80;;;0.75;;
61096;SDS011;46977;50.936;6.908;2023-04-01T15:30:36;0.70;;;0.60;;
61096;SDS011;46977;50.936;6.908;2023-04-01T15:33:52;0.60;;;0.60;;
61096;SDS011;46977;50.936;6.908;2023-04-01T15:37:04;0.95;;;0.50;;
61096;SDS011;46977;50.936;6.908;2023-04-01T15:40:15;1.00;;;0.90;;
61096;SDS011;46977;50.936;6.908;2023-04-01T15:43:27;0.80;;;0.80;;
61096;SDS011;46977;50.936;6.908;2023-04-01T15:46:40;0.57;;;0.57;;
61096;SDS011;46977;50.936;6.908;2023-04-01T15:49:47;3.10;;;0.90;;
61096;SDS011;46977;50.936;6.908;2023-04-01T15:52:56;0.80;;;0.80;;
61096;SDS011;46977;50.936;6.908;2023-04-01T15:56:09;0.95;;;0.75;;
61096;SDS011;46977;50.936;6.908;2023-04-01T15:59:29;1.15;;;1.05;;
61096;SDS011;46977;50.936;6.908;2023-04-01T16:02:44;0.70;;;0.70;;
61096;SDS011;46977;50.936;6.908;2023-04-01T16:06:01;1.55;;;0.80;;
61096;SDS011;46977;50.936;6.908;2023-04-01T16:12:54;0.90;;;0.90;;
61096;SDS011;46977;50.936;6.908;2023-04-01T16:16:05;0.95;;;0.95;;
61096;SDS011;46977;50.936;6.908;2023-04-01T16:19:17;0.90;;;0.90;;
61096;SDS011;46977;50.936;6.908;2023-04-01T16:22:29;1.27;;;0.80;;
61096;SDS011;46977;50.936;6.908;2023-04-01T16:25:35;0.90;;;0.85;;
61096;SDS011;46977;50.936;6.908;2023-04-01T16:28:42;1.75;;;0.50;;
61096;SDS011;46977;50.936;6.908;2023-04-01T16:31:53;0.95;;;0.80;;
61096;SDS011;46977;50.936;6.908;2023-04-01T16:35:01;0.73;;;0.73;;
61096;SDS011;46977;50.936;6.908;2023-04-01T16:38:26;0.80;;;0.75;;
61096;SDS011;46977;50.936;6.908;2023-04-01T16:41:35;1.15;;;0.70;;
61096;SDS011;46977;50.936;6.908;2023-04-01T16:44:44;0.70;;;0.70;;
61096;SDS011;46977;50.936;6.908;2023-04-01T16:47:51;0.73;;;0.73;;
61096;SDS011;46977;50.936;6.908;2023-04-01T16:50:58;0.82;;;0.60;;
61096;SDS011;46977;50.936;6.908;2023-04-01T16:54:04;0.70;;;0.70;;
61096;SDS011;46977;50.936;6.908;2023-04-01T16:57:13;0.80;;;0.80;;
61096;SDS011;46977;50.936;6.908;2023-04-01T17:00:23;1.00;;;0.90;;
61096;SDS011;46977;50.936;6.908;2023-04-01T17:03:28;0.70;;;0.70;;
61096;SDS011;46977;50.936;6.908;2023-04-01T17:06:36;0.90;;;0.60;;
61096;SDS011;46977;50.936;6.908;2023-04-01T17:13:18;0.50;;;0.50;;
61096;SDS011;46977;50.936;6.908;2023-04-01T17:16:28;0.80;;;0.80;;
61096;SDS011;46977;50.936;6.908;2023-04-01T17:19:54;0.60;;;0.60;;
61096;SDS011;46977;50.936;6.908;2023-04-01T17:23:04;0.57;;;0.55;;
61096;SDS011;46977;50.936;6.908;2023-04-01T17:26:25;0.65;;;0.65;;
61096;SDS011;46977;50.936;6.908;2023-04-01T17:29:31;1.02;;;0.75;;
61096;SDS011;46977;50.936;6.908;2023-04-01T17:32:39;0.70;;;0.70;;
61096;SDS011;46977;50.936;6.908;2023-04-01T17:35:50;0.70;;;0.70;;
61096;SDS011;46977;50.936;6.908;2023-04-01T17:39:04;1.15;;;0.70;;
61096;SDS011;46977;50.936;6.908;2023-04-01T17:42:16;0.88;;;0.60;;
61096;SDS011;46977;50.936;6.908;2023-04-01T17:45:24;2.05;;;0.60;;
61096;SDS011;46977;50.936;6.908;2023-04-01T17:48:35;0.70;;;0.70;;
61096;SDS011;46977;50.936;6.908;2023-04-01T17:51:42;0.90;;;0.90;;
61096;SDS011;46977;50.936;6.908;2023-04-01T17:54:46;1.52;;;0.80;;
61096;SDS011;46977;50.936;6.908;2023-04-01T17:57:55;0.68;;;0.68;;
61096;SDS011;46977;50.936;6.908;2023-04-01T18:01:09;0.68;;;0.68;;
61096;SDS011;46977;50.936;6.908;2023-04-01T18:04:22;0.80;;;0.80;;
61096;SDS011;46977;50.936;6.908;2023-04-01T18:07:43;0.82;;;0.77;;
61096;SDS011;46977;50.936;6.908;2023-04-01T18:10:51;1.15;;;0.93;;
61096;SDS011;46977;50.936;6.908;2023-04-01T18:17:46;1.00;;;0.90;;
61096;SDS011;46977;50.936;6.908;2023-04-01T18:20:58;1.10;;;1.00;;
61096;SDS011;46977;50.936;6.908;2023-04-01T18:24:06;1.08;;;1.08;;
61096;SDS011;46977;50.936;6.908;2023-04-01T18:27:16;1.58;;;1.02;;
61096;SDS011;46977;50.936;6.908;2023-04-01T18:30:22;1.55;;;1.00;;
61096;SDS011;46977;50.936;6.908;2023-04-01T18:33:30;1.20;;;1.10;;
61096;SDS011;46977;50.936;6.908;2023-04-01T18:36:38;1.98;;;1.02;;
61096;SDS011;46977;50.936;6.908;2023-04-01T18:39:46;1.20;;;1.00;;
61096;SDS011;46977;50.936;6.908;2023-04-01T18:42:53;1.83;;;1.40;;
61096;SDS011;46977;50.936;6.908;2023-04-01T18:46:05;1.20;;;1.10;;
61096;SDS011;46977;50.936;6.908;2023-04-01T18:49:13;1.65;;;0.90;;
61096;SDS011;46977;50.936;6.908;2023-04-01T18:52:19;1.10;;;1.00;;
61096;SDS011;46977;50.936;6.908;2023-04-01T18:55:31;0.93;;;0.90;;
61096;SDS011;46977;50.936;6.908;2023-04-01T18:58:42;1.10;;;1.02;;
61096;SDS011;46977;50.936;6.908;2023-04-01T19:05:07;1.00;;;1.00;;
61096;SDS011;46977;50.936;6.908;2023-04-01T19:08:16;1.10;;;1.10;;
61096;SDS011;46977;50.936;6.908;2023-04-01T19:11:24;1.55;;;1.42;;
61096;SDS011;46977;50.936;6.908;2023-04-01T19:14:44;1.35;;;1.10;;
61096;SDS011;46977;50.936;6.908;2023-04-01T19:18:14;1.75;;;1.65;;
61096;SDS011;46977;50.936;6.908;2023-04-01T19:21:26;1.08;;;0.98;;
61096;SDS011;46977;50.936;6.908;2023-04-01T19:24:36;1.00;;;0.85;;
61096;SDS011;46977;50.936;6.908;2023-04-01T19:27:59;0.90;;;0.90;;
61096;SDS011;46977;50.936;6.908;2023-04-01T19:31:08;1.10;;;0.80;;
61096;SDS011;46977;50.936;6.908;2023-04-01T19:34:20;1.85;;;1.75;;
61096;SDS011;46977;50.936;6.908;2023-04-01T19:37:32;1.20;;;1.10;;
61096;SDS011;46977;50.936;6.908;2023-04-01T19:40:43;2.33;;;1.27;;
61096;SDS011;46977;50.936;6.908;2023-04-01T19:43:54;1.63;;;1.05;;
61096;SDS011;46977;50.936;6.908;2023-04-01T19:47:04;1.63;;;1.27;;
61096;SDS011;46977;50.936;6.908;2023-04-01T19:50:14;1.48;;;1.38;;
61096;SDS011;46977;50.936;6.908;2023-04-01T19:53:25;1.50;;;1.33;;
61096;SDS011;46977;50.936;6.908;2023-04-01T19:56:32;2.08;;;1.20;;
61096;SDS011;46977;50.936;6.908;2023-04-01T19:59:38;1.95;;;1.45;;
61096;SDS011;46977;50.936;6.908;2023-04-01T20:06:18;1.50;;;1.38;;
61096;SDS011;46977;50.936;6.908;2023-04-01T20:09:28;3.22;;;2.88;;
61096;SDS011;46977;50.936;6.908;2023-04-01T20:12:42;2.63;;;1.70;;
61096;SDS011;46977;50.936;6.908;2023-04-01T20:15:55;1.45;;;1.35;;
61096;SDS011;46977;50.936;6.908;2023-04-01T20:19:04;2.70;;;1.95;;
61096;SDS011;46977;50.936;6.908;2023-04-01T20:22:15;1.88;;;1.77;;
61096;SDS011;46977;50.936;6.908;2023-04-01T20:25:25;1.67;;;1.58;;
61096;SDS011;46977;50.936;6.908;2023-04-01T20:28:30;2.25;;;2.10;;
61096;SDS011;46977;50.936;6.908;2023-04-01T20:31:36;2.00;;;1.90;;
61096;SDS011;46977;50.936;6.908;2023-04-01T20:34:42;2.53;;;2.30;;